createdAt,value
2018-03-03T00:02:26.371Z,-0.02
2018-03-03T00:04:54.815Z,-0.09
2018-03-03T00:07:23.950Z,0.03
2018-03-03T00:09:52.348Z,0.13
2018-03-03T00:12:20.633Z,0.08
2018-03-03T00:14:48.904Z,0.13
2018-03-03T00:17:17.205Z,-0.01
2018-03-03T00:19:45.498Z,0.03
2018-03-03T00:22:19.652Z,-0.02
2018-03-03T00:24:47.955Z,0.14
2018-03-03T00:27:16.209Z,0.12
2018-03-03T00:29:45.341Z,0.08
2018-03-03T00:32:14.481Z,0.11
2018-03-03T00:34:42.756Z,0.08
2018-03-03T00:37:11.078Z,0.07
2018-03-03T00:39:39.337Z,-0.05
2018-03-03T00:42:08.134Z,-0.03
2018-03-03T00:44:37.196Z,-0.07
2018-03-03T00:47:05.482Z,0.19
2018-03-03T00:49:33.785Z,0.19
2018-03-03T00:52:02.072Z,0.15
2018-03-03T00:54:31.119Z,0.10
2018-03-03T00:56:59.405Z,0.03
2018-03-03T00:59:27.753Z,0.02
2018-03-03T01:01:56.048Z,0.06
2018-03-03T01:04:24.340Z,0.13
2018-03-03T01:06:52.592Z,0.12
2018-03-03T01:09:21.151Z,0.11
2018-03-03T01:11:50.163Z,0.06
2018-03-03T01:14:18.433Z,0.00
2018-03-03T01:16:46.761Z,0.06
2018-03-03T01:19:15.798Z,0.11
2018-03-03T01:21:44.126Z,0.13
2018-03-03T01:24:12.508Z,0.18
2018-03-03T01:26:41.789Z,0.15
2018-03-03T01:29:10.039Z,0.11
2018-03-03T01:31:38.327Z,-0.06
2018-03-03T01:34:06.637Z,0.18
2018-03-03T01:36:35.761Z,0.03
2018-03-03T01:39:04.787Z,-0.06
2018-03-03T01:41:33.206Z,-0.12
2018-03-03T01:44:02.255Z,-0.03
2018-03-03T01:46:30.520Z,-0.19
2018-03-03T01:48:58.806Z,-0.30
2018-03-03T01:51:44.104Z,-0.21
2018-03-03T01:54:12.424Z,-0.01
2018-03-03T01:56:40.718Z,-0.13
2018-03-03T01:59:08.998Z,-0.02
2018-03-03T02:01:37.270Z,-0.11
2018-03-03T02:04:05.824Z,-0.02
2018-03-03T02:06:35.620Z,-0.01
2018-03-03T02:09:04.041Z,-0.13
2018-03-03T02:11:32.320Z,0.04
2018-03-03T02:14:00.607Z,0.06
2018-03-03T02:16:29.799Z,-0.20
2018-03-03T02:18:58.125Z,-0.30
2018-03-03T02:21:26.398Z,-0.14
2018-03-03T02:23:54.700Z,-0.28
2018-03-03T02:26:23.014Z,-0.31
2018-03-03T02:28:52.254Z,-0.19
2018-03-03T02:31:21.452Z,-0.24
2018-03-03T02:33:49.746Z,-0.26
2018-03-03T02:36:18.156Z,-0.11
2018-03-03T02:38:46.593Z,-0.28
2018-03-03T02:41:14.863Z,-0.28
2018-03-03T02:43:43.154Z,-0.30
2018-03-03T02:46:11.517Z,-0.21
2018-03-03T02:48:39.869Z,-0.29
2018-03-03T02:51:08.933Z,-0.19
2018-03-03T02:53:37.211Z,-0.19
2018-03-03T02:56:05.496Z,-0.28
2018-03-03T02:58:33.772Z,-0.24
2018-03-03T03:01:02.072Z,-0.37
2018-03-03T03:03:30.377Z,-0.30
2018-03-03T03:05:58.706Z,-0.28
2018-03-03T03:08:27.744Z,-0.27
2018-03-03T03:10:56.024Z,-0.36
2018-03-03T03:13:24.308Z,-0.11
2018-03-03T03:15:52.582Z,0.01
2018-03-03T03:18:20.883Z,-0.05
2018-03-03T03:20:49.295Z,-0.15
2018-03-03T03:23:17.592Z,-0.12
2018-03-03T03:25:45.947Z,-0.31
2018-03-03T03:28:15.022Z,-0.12
2018-03-03T03:30:43.283Z,-0.11
2018-03-03T03:33:11.606Z,-0.18
2018-03-03T03:35:39.884Z,-0.23
2018-03-03T03:38:08.201Z,-0.19
2018-03-03T03:40:36.514Z,-0.13
2018-03-03T03:43:04.978Z,-0.21
2018-03-03T03:45:34.028Z,-0.24
2018-03-03T03:48:02.302Z,-0.27
2018-03-03T03:50:30.581Z,-0.08
2018-03-03T03:52:58.864Z,-0.02
2018-03-03T03:55:27.122Z,0.07
2018-03-03T03:57:55.394Z,0.07
2018-03-03T04:00:25.419Z,0.02
2018-03-03T04:02:53.718Z,-0.08
2018-03-03T04:05:22.038Z,-0.13
2018-03-03T04:07:50.537Z,-0.20
2018-03-03T04:10:18.813Z,-0.09
2018-03-03T04:12:47.647Z,-0.10
2018-03-03T04:15:15.904Z,-0.19
2018-03-03T04:17:44.318Z,-0.22
2018-03-03T04:20:12.695Z,-0.28
2018-03-03T04:22:41.751Z,-0.23
2018-03-03T04:25:10.182Z,-0.15
2018-03-03T04:27:38.471Z,-0.10
2018-03-03T04:30:06.758Z,0.03
2018-03-03T04:32:35.032Z,-0.07
2018-03-03T04:35:03.335Z,-0.10
2018-03-03T04:37:32.517Z,-0.18
2018-03-03T04:40:00.856Z,-0.09
2018-03-03T04:42:29.124Z,-0.02
2018-03-03T04:44:57.512Z,-0.11
2018-03-03T04:47:25.770Z,-0.07
2018-03-03T04:49:54.829Z,0.05
2018-03-03T04:52:23.083Z,0.09
2018-03-03T04:54:51.370Z,-0.09
2018-03-03T04:57:19.638Z,0.05
2018-03-03T05:00:06.613Z,0.07
2018-03-03T05:02:40.466Z,0.01
2018-03-03T05:05:13.602Z,0.09
2018-03-03T05:07:43.836Z,0.21
2018-03-03T05:10:12.499Z,-0.14
2018-03-03T05:12:42.068Z,0.10
2018-03-03T05:18:15.928Z,0.09
2018-03-03T05:20:49.820Z,-0.11
2018-03-03T05:23:23.700Z,-0.16
2018-03-03T05:25:57.777Z,-0.21
2018-03-03T05:28:27.907Z,-0.03
2018-03-03T05:31:01.821Z,0.03
2018-03-03T05:33:33.899Z,0.04
2018-03-03T05:39:12.204Z,0.10
2018-03-03T05:41:46.858Z,0.17
2018-03-03T05:44:23.717Z,0.12
2018-03-03T05:50:13.203Z,0.29
2018-03-03T05:52:45.814Z,0.24
2018-03-03T05:55:19.631Z,0.22
2018-03-03T06:00:51.214Z,0.25
2018-03-03T06:03:25.854Z,0.21
2018-03-03T06:09:07.876Z,1.11
2018-03-03T06:11:36.240Z,0.62
2018-03-03T06:14:05.445Z,0.96
2018-03-03T06:16:33.883Z,0.60
2018-03-03T06:19:03.825Z,0.47
2018-03-03T06:21:32.838Z,0.36
2018-03-03T06:24:01.107Z,0.98
2018-03-03T06:26:29.996Z,1.28
2018-03-03T06:28:59.130Z,0.85
2018-03-03T06:31:27.403Z,0.57
2018-03-03T06:33:55.682Z,0.45
2018-03-03T06:36:23.944Z,0.33
2018-03-03T06:38:52.214Z,0.22
2018-03-03T06:41:20.493Z,-0.20
2018-03-03T06:43:48.763Z,-0.02
2018-03-03T06:46:17.042Z,0.23
2018-03-03T06:48:45.365Z,0.21
2018-03-03T06:51:13.662Z,0.17
2018-03-03T06:53:41.923Z,0.16
2018-03-03T06:56:10.182Z,0.14
2018-03-03T06:58:39.250Z,0.25
2018-03-03T07:01:07.516Z,0.12
2018-03-03T07:03:35.938Z,0.08
2018-03-03T07:06:04.980Z,0.01
2018-03-03T07:08:33.264Z,0.13
2018-03-03T07:11:01.534Z,0.14
2018-03-03T07:13:29.810Z,0.26
2018-03-03T07:15:58.131Z,0.33
2018-03-03T07:18:26.365Z,0.37
2018-03-03T07:20:54.636Z,0.56
2018-03-03T07:23:22.943Z,0.56
2018-03-03T07:25:52.241Z,0.50
2018-03-03T07:28:21.335Z,0.52
2018-03-03T07:30:49.788Z,0.44
2018-03-03T07:33:18.055Z,0.41
2018-03-03T07:35:47.134Z,0.45
2018-03-03T07:38:15.559Z,0.73
2018-03-03T07:40:45.381Z,0.82
2018-03-03T07:43:14.443Z,0.91
2018-03-03T07:45:42.714Z,0.99
2018-03-03T07:48:11.028Z,1.02
2018-03-03T07:50:40.061Z,0.81
2018-03-03T07:53:09.111Z,0.92
2018-03-03T07:55:38.176Z,0.96
2018-03-03T07:58:07.337Z,1.07
2018-03-03T08:00:35.701Z,0.98
2018-03-03T08:03:04.313Z,1.08
2018-03-03T08:05:32.608Z,1.15
2018-03-03T08:08:01.070Z,1.19
2018-03-03T08:10:29.364Z,1.25
2018-03-03T08:12:57.926Z,1.34
2018-03-03T08:15:26.247Z,1.43
2018-03-03T08:17:55.320Z,1.35
2018-03-03T08:20:23.681Z,1.47
2018-03-03T08:22:51.951Z,1.51
2018-03-03T08:25:20.244Z,1.53
2018-03-03T08:27:48.591Z,1.66
2018-03-03T08:30:16.860Z,1.68
2018-03-03T08:32:45.216Z,1.56
2018-03-03T08:35:13.610Z,1.75
2018-03-03T08:37:42.128Z,1.93
2018-03-03T08:40:10.370Z,1.94
2018-03-03T08:42:40.197Z,1.94
2018-03-03T08:45:08.479Z,2.01
2018-03-03T08:47:36.767Z,2.04
2018-03-03T08:50:05.044Z,2.30
2018-03-03T08:52:33.303Z,2.25
2018-03-03T08:55:01.590Z,2.62
2018-03-03T08:57:29.864Z,2.58
2018-03-03T08:59:58.304Z,2.43
2018-03-03T09:02:26.868Z,2.52
2018-03-03T09:04:55.136Z,2.66
2018-03-03T09:07:23.431Z,2.77
2018-03-03T09:09:51.738Z,2.84
2018-03-03T09:12:20.032Z,2.94
2018-03-03T09:14:49.096Z,3.06
2018-03-03T09:17:17.477Z,3.41
2018-03-03T09:19:46.644Z,3.42
2018-03-03T09:22:14.905Z,3.33
2018-03-03T09:24:43.236Z,3.48
2018-03-03T09:27:13.299Z,3.45
2018-03-03T09:29:42.400Z,3.23
2018-03-03T09:32:10.776Z,3.39
2018-03-03T09:34:39.833Z,3.43
2018-03-03T09:37:08.244Z,3.55
2018-03-03T09:39:36.547Z,3.52
2018-03-03T09:42:04.916Z,3.55
2018-03-03T09:44:33.195Z,3.35
2018-03-03T09:47:01.528Z,3.22
2018-03-03T09:49:32.326Z,3.07
2018-03-03T09:52:01.418Z,3.38
2018-03-03T09:54:29.811Z,3.54
2018-03-03T09:56:59.603Z,3.38
2018-03-03T09:59:27.894Z,3.22
2018-03-03T10:02:05.923Z,3.17
2018-03-03T10:04:26.086Z,3.51
2018-03-03T10:06:54.418Z,3.66
2018-03-03T10:09:23.937Z,3.67
2018-03-03T10:11:55.271Z,3.57
2018-03-03T10:14:23.584Z,3.61
2018-03-03T10:16:51.852Z,4.12
2018-03-03T10:19:20.115Z,4.58
2018-03-03T10:21:48.381Z,4.59
2018-03-03T10:24:16.664Z,4.74
2018-03-03T10:26:47.083Z,4.89
2018-03-03T10:29:15.344Z,4.90
2018-03-03T10:31:43.638Z,5.01
2018-03-03T10:34:11.904Z,5.17
2018-03-03T10:36:42.421Z,5.27
2018-03-03T10:39:11.016Z,5.18
2018-03-03T10:41:39.400Z,5.45
2018-03-03T10:44:08.336Z,5.53
2018-03-03T10:46:38.268Z,5.64
2018-03-03T10:49:07.319Z,5.50
2018-03-03T10:51:35.739Z,5.50
2018-03-03T10:54:04.824Z,5.73
2018-03-03T10:56:34.886Z,5.73
2018-03-03T10:59:03.128Z,5.55
2018-03-03T11:01:31.540Z,5.59
2018-03-03T11:03:59.993Z,5.84
2018-03-03T11:06:29.097Z,6.03
2018-03-03T11:08:57.452Z,5.82
2018-03-03T11:11:25.721Z,5.96
2018-03-03T11:13:54.818Z,6.11
2018-03-03T11:16:23.921Z,6.19
2018-03-03T11:18:52.254Z,6.10
2018-03-03T11:21:23.016Z,6.00
2018-03-03T11:23:51.307Z,5.81
2018-03-03T11:26:19.568Z,5.94
2018-03-03T11:28:48.687Z,6.17
2018-03-03T11:31:16.935Z,6.51
2018-03-03T11:33:46.992Z,6.57
2018-03-03T11:36:15.947Z,7.07
2018-03-03T11:38:46.047Z,7.36
2018-03-03T11:41:14.586Z,7.59
2018-03-03T11:43:43.037Z,7.13
2018-03-03T11:46:11.495Z,6.81
2018-03-03T11:48:41.101Z,6.36
2018-03-03T11:51:10.152Z,6.54
2018-03-03T11:53:38.429Z,6.58
2018-03-03T11:56:07.624Z,6.46
2018-03-03T11:58:35.892Z,6.70
2018-03-03T12:01:04.457Z,6.69
2018-03-03T12:03:32.722Z,6.74
2018-03-03T12:06:01.013Z,6.71
2018-03-03T12:08:29.300Z,6.34
2018-03-03T12:10:57.565Z,7.19
2018-03-03T12:13:25.848Z,8.28
2018-03-03T12:15:54.092Z,8.87
2018-03-03T12:18:22.401Z,8.77
2018-03-03T12:20:50.694Z,8.93
2018-03-03T12:23:18.968Z,9.75
2018-03-03T12:25:47.270Z,10.63
2018-03-03T12:28:16.433Z,10.33
2018-03-03T12:30:44.755Z,9.81
2018-03-03T12:33:13.841Z,10.23
2018-03-03T12:35:42.897Z,10.28
2018-03-03T12:38:11.363Z,10.26
2018-03-03T12:40:39.659Z,9.53
2018-03-03T12:43:07.979Z,9.68
2018-03-03T12:45:36.277Z,9.55
2018-03-03T12:48:04.633Z,9.54
2018-03-03T12:50:33.671Z,9.68
2018-03-03T12:53:02.130Z,9.49
2018-03-03T12:55:30.424Z,9.33
2018-03-03T12:57:58.883Z,9.00
2018-03-03T13:00:27.160Z,8.91
2018-03-03T13:02:55.467Z,9.17
2018-03-03T13:05:23.729Z,8.95
2018-03-03T13:07:52.047Z,9.35
2018-03-03T13:10:21.210Z,8.98
2018-03-03T13:12:49.496Z,9.05
2018-03-03T13:15:17.804Z,9.06
2018-03-03T13:17:46.858Z,9.18
2018-03-03T13:20:15.185Z,9.24
2018-03-03T13:22:43.473Z,9.51
2018-03-03T13:25:11.766Z,9.30
2018-03-03T13:27:40.124Z,9.42
2018-03-03T13:30:08.396Z,9.04
2018-03-03T13:32:36.684Z,8.78
2018-03-03T13:35:05.028Z,9.16
2018-03-03T13:37:34.076Z,9.10
2018-03-03T13:40:02.336Z,9.32
2018-03-03T13:42:31.328Z,9.72
2018-03-03T13:44:59.592Z,9.98
2018-03-03T13:47:27.985Z,9.86
2018-03-03T13:49:56.468Z,10.24
2018-03-03T13:52:24.890Z,10.36
2018-03-03T13:54:54.042Z,10.89
2018-03-03T13:57:24.700Z,10.54
2018-03-03T13:59:53.057Z,11.34
2018-03-03T14:02:21.440Z,11.88
2018-03-03T14:04:49.851Z,12.12
2018-03-03T14:07:19.029Z,11.90
2018-03-03T14:09:47.626Z,11.65
2018-03-03T14:12:15.920Z,11.24
2018-03-03T14:14:44.191Z,10.26
2018-03-03T14:17:12.509Z,9.92
2018-03-03T14:19:40.799Z,9.46
2018-03-03T14:22:10.694Z,8.74
2018-03-03T14:24:39.275Z,8.53
2018-03-03T14:27:07.611Z,9.06
2018-03-03T14:29:37.705Z,9.09
2018-03-03T14:32:06.942Z,9.13
2018-03-03T14:34:35.239Z,8.74
2018-03-03T14:37:04.163Z,8.68
2018-03-03T14:39:37.512Z,9.00
2018-03-03T14:42:05.987Z,9.41
2018-03-03T14:44:35.138Z,9.61
2018-03-03T14:47:04.174Z,9.15
2018-03-03T14:49:32.859Z,9.30
2018-03-03T14:52:01.685Z,9.34
2018-03-03T14:54:30.175Z,9.28
2018-03-03T14:56:59.030Z,9.44
2018-03-03T14:59:27.558Z,9.05
2018-03-03T15:01:56.601Z,8.87
2018-03-03T15:04:24.951Z,8.85
2018-03-03T15:06:53.234Z,8.87
2018-03-03T15:09:23.294Z,8.93
2018-03-03T15:11:53.441Z,9.05
2018-03-03T15:14:22.660Z,8.84
2018-03-03T15:16:50.936Z,8.75
2018-03-03T15:19:20.064Z,8.86
2018-03-03T15:21:48.692Z,8.84
2018-03-03T15:24:21.998Z,8.78
2018-03-03T15:26:50.607Z,8.42
2018-03-03T15:29:18.910Z,8.28
2018-03-03T15:31:47.239Z,8.13
2018-03-03T15:34:15.615Z,7.88
2018-03-03T15:36:44.189Z,7.77
2018-03-03T15:39:13.264Z,7.57
2018-03-03T15:41:41.551Z,7.43
2018-03-03T15:44:10.641Z,7.32
2018-03-03T15:46:40.256Z,7.25
2018-03-03T15:49:09.543Z,6.89
2018-03-03T15:51:38.533Z,6.75
2018-03-03T15:54:07.695Z,6.72
2018-03-03T15:56:35.970Z,6.55
2018-03-03T15:59:04.303Z,6.41
2018-03-03T16:01:32.690Z,6.36
2018-03-03T16:04:01.288Z,6.41
2018-03-03T16:06:29.873Z,6.26
2018-03-03T16:08:58.127Z,6.20
2018-03-03T16:11:31.554Z,6.03
2018-03-03T16:14:00.797Z,5.94
2018-03-03T16:16:29.267Z,5.95
2018-03-03T16:18:57.901Z,5.96
2018-03-03T16:21:26.242Z,5.78
2018-03-03T16:23:55.309Z,5.73
2018-03-03T16:26:23.568Z,5.74
2018-03-03T16:28:51.893Z,5.63
2018-03-03T16:31:20.183Z,5.55
2018-03-03T16:33:48.487Z,5.54
2018-03-03T16:36:16.849Z,5.46
2018-03-03T16:38:45.208Z,5.42
2018-03-03T16:41:13.492Z,5.40
2018-03-03T16:43:41.812Z,5.47
2018-03-03T16:46:10.083Z,5.53
2018-03-03T16:48:38.359Z,5.41
2018-03-03T16:51:06.640Z,5.36
2018-03-03T16:53:35.992Z,5.36
2018-03-03T16:56:04.333Z,5.38
2018-03-03T16:58:33.403Z,5.37
2018-03-03T17:01:04.956Z,5.08
2018-03-03T17:03:34.198Z,4.97
2018-03-03T17:06:02.689Z,4.81
2018-03-03T17:08:31.258Z,4.74
2018-03-03T17:10:59.649Z,4.64
2018-03-03T17:13:27.897Z,4.60
2018-03-03T17:15:56.970Z,4.70
2018-03-03T17:18:25.264Z,4.47
2018-03-03T17:20:54.447Z,4.59
2018-03-03T17:23:22.730Z,4.51
2018-03-03T17:25:51.752Z,4.36
2018-03-03T17:28:20.775Z,4.24
2018-03-03T17:30:49.032Z,4.16
2018-03-03T17:33:17.408Z,4.07
2018-03-03T17:35:45.831Z,4.05
2018-03-03T17:38:15.139Z,4.01
2018-03-03T17:40:43.457Z,3.94
2018-03-03T17:43:11.728Z,3.96
2018-03-03T17:45:40.059Z,4.01
2018-03-03T17:48:09.098Z,3.88
2018-03-03T17:50:37.372Z,3.90
2018-03-03T17:53:05.650Z,3.96
2018-03-03T17:55:33.928Z,3.73
2018-03-03T17:58:02.251Z,3.70
2018-03-03T18:00:30.541Z,3.84
2018-03-03T18:02:59.599Z,4.00
2018-03-03T18:05:28.565Z,3.94
2018-03-03T18:07:56.994Z,3.86
2018-03-03T18:10:25.264Z,3.82
2018-03-03T18:12:54.465Z,3.67
2018-03-03T18:15:22.794Z,3.72
2018-03-03T18:17:51.105Z,3.70
2018-03-03T18:20:19.404Z,3.67
2018-03-03T18:22:49.322Z,3.53
2018-03-03T18:25:19.208Z,3.66
2018-03-03T18:27:47.514Z,3.57
2018-03-03T18:30:17.161Z,3.53
2018-03-03T18:32:46.229Z,3.71
2018-03-03T18:35:14.577Z,3.72
2018-03-03T18:37:43.679Z,3.67
2018-03-03T18:40:12.754Z,3.67
2018-03-03T18:42:41.222Z,3.61
2018-03-03T18:45:09.530Z,3.60
2018-03-03T18:47:39.197Z,3.82
2018-03-03T18:50:07.525Z,3.79
2018-03-03T18:52:35.850Z,3.73
2018-03-03T18:55:04.122Z,3.59
2018-03-03T18:57:33.160Z,3.74
2018-03-03T19:00:01.471Z,3.73
2018-03-03T19:02:29.808Z,3.74
2018-03-03T19:04:59.631Z,3.75
2018-03-03T19:07:27.912Z,3.76
2018-03-03T19:09:56.208Z,3.72
2018-03-03T19:12:24.487Z,3.59
2018-03-03T19:14:52.770Z,3.71
2018-03-03T19:17:21.203Z,3.76
2018-03-03T19:19:50.245Z,3.68
2018-03-03T19:22:18.558Z,3.60
2018-03-03T19:24:47.611Z,3.99
2018-03-03T19:27:15.928Z,4.42
2018-03-03T19:29:44.984Z,4.35
2018-03-03T19:32:13.269Z,4.12
2018-03-03T19:34:41.579Z,4.00
2018-03-03T19:37:10.648Z,4.05
2018-03-03T19:39:38.919Z,4.06
2018-03-03T19:42:07.216Z,4.01
2018-03-03T19:44:36.389Z,3.80
2018-03-03T19:47:04.682Z,3.83
2018-03-03T19:49:33.106Z,3.89
2018-03-03T19:52:01.434Z,3.83
2018-03-03T19:54:29.734Z,3.93
2018-03-03T19:56:58.026Z,3.77
2018-03-03T19:59:26.352Z,3.83
2018-03-03T20:01:54.637Z,3.80
2018-03-03T20:04:22.920Z,3.85
2018-03-03T20:06:52.060Z,3.89
2018-03-03T20:09:20.343Z,4.01
2018-03-03T20:11:48.652Z,4.11
2018-03-03T20:14:18.119Z,4.18
2018-03-03T20:16:46.401Z,4.20
2018-03-03T20:19:14.690Z,4.31
2018-03-03T20:21:42.981Z,4.13
2018-03-03T20:24:12.760Z,4.03
2018-03-03T20:26:41.071Z,4.08
2018-03-03T20:29:09.366Z,4.08
2018-03-03T20:31:38.423Z,4.22
2018-03-03T20:34:06.771Z,4.26
2018-03-03T20:36:35.045Z,4.21
2018-03-03T20:39:03.365Z,4.45
2018-03-03T20:41:31.664Z,4.13
2018-03-03T20:44:00.730Z,4.12
2018-03-03T20:46:29.001Z,4.06
2018-03-03T20:48:57.321Z,4.00
2018-03-03T20:51:25.647Z,4.05
2018-03-03T20:53:54.022Z,3.92
2018-03-03T20:56:22.442Z,3.84
2018-03-03T20:58:51.503Z,3.97
2018-03-03T21:01:19.808Z,3.97
2018-03-03T21:03:48.847Z,3.87
2018-03-03T21:06:17.886Z,3.79
2018-03-03T21:08:46.964Z,3.78
2018-03-03T21:11:15.730Z,3.97
2018-03-03T21:13:44.931Z,3.71
2018-03-03T21:16:14.000Z,3.64
2018-03-03T21:18:42.306Z,3.64
2018-03-03T21:21:10.601Z,3.56
2018-03-03T21:23:40.358Z,3.54
2018-03-03T21:26:09.007Z,3.45
2018-03-03T21:28:38.109Z,3.46
2018-03-03T21:31:06.544Z,3.62
2018-03-03T21:33:34.946Z,3.62
2018-03-03T21:36:04.033Z,3.44
2018-03-03T21:38:32.594Z,3.33
2018-03-03T21:41:01.064Z,3.43
2018-03-03T21:43:29.628Z,3.28
2018-03-03T21:45:58.007Z,3.44
2018-03-03T21:48:26.328Z,3.23
2018-03-03T21:50:54.597Z,3.20
2018-03-03T21:53:22.907Z,3.34
2018-03-03T21:55:51.937Z,3.38
2018-03-03T21:58:20.321Z,3.47
2018-03-03T22:00:48.622Z,3.41
2018-03-03T22:03:17.688Z,3.40
2018-03-03T22:05:46.640Z,3.25
2018-03-03T22:08:16.091Z,3.08
2018-03-03T22:10:44.591Z,3.10
2018-03-03T22:13:14.790Z,3.21
2018-03-03T22:15:44.639Z,3.07
2018-03-03T22:18:13.699Z,3.07
2018-03-03T22:20:42.415Z,3.12
2018-03-03T22:23:10.725Z,3.07
2018-03-03T22:25:39.123Z,3.09
2018-03-03T22:28:07.551Z,3.12
2018-03-03T22:30:36.686Z,2.95
2018-03-03T22:33:04.986Z,2.93
2018-03-03T22:35:34.145Z,2.86
2018-03-03T22:38:02.413Z,2.94
2018-03-03T22:40:31.783Z,2.83
2018-03-03T22:43:00.828Z,2.82
2018-03-03T22:45:30.290Z,2.84
2018-03-03T22:48:01.306Z,2.92
2018-03-03T22:50:30.939Z,2.69
2018-03-03T22:53:00.646Z,2.67
2018-03-03T22:55:30.871Z,2.93
2018-03-03T22:58:00.413Z,2.89
2018-03-03T23:00:28.792Z,2.83
2018-03-03T23:02:57.150Z,2.88
2018-03-03T23:05:25.532Z,2.92
2018-03-03T23:07:53.827Z,3.08
2018-03-03T23:10:22.122Z,3.02
2018-03-03T23:12:51.857Z,2.88
2018-03-03T23:15:20.921Z,2.87
2018-03-03T23:17:49.215Z,2.90
2018-03-03T23:20:18.290Z,2.97
2018-03-03T23:22:46.802Z,2.94
2018-03-03T23:25:15.133Z,2.92
2018-03-03T23:30:18.126Z,2.78
2018-03-03T23:32:46.419Z,2.87
2018-03-03T23:35:15.521Z,2.74
2018-03-03T23:37:44.709Z,2.99
2018-03-03T23:40:13.051Z,3.02
2018-03-03T23:42:41.335Z,3.04
2018-03-03T23:45:09.622Z,2.89
2018-03-03T23:47:43.790Z,2.94
2018-03-03T23:50:12.862Z,2.90
2018-03-03T23:52:42.089Z,2.87
2018-03-03T23:55:11.136Z,2.91
2018-03-03T23:57:39.480Z,2.89
